createdAt,value
2023-03-26T00:03:21.332Z,10.53
2023-03-26T00:07:48.101Z,2.35
2023-03-26T00:12:15.825Z,15.88
2023-03-26T00:16:44.138Z,11.65
2023-03-26T00:21:09.930Z,1.07
2023-03-26T00:25:35.249Z,1.08
2023-03-26T00:30:01.103Z,1.30
2023-03-26T00:34:28.897Z,1.50
2023-03-26T00:38:55.556Z,1.00
2023-03-26T00:43:21.788Z,2.13
2023-03-26T00:47:46.852Z,1.03
2023-03-26T00:52:14.459Z,4.45
2023-03-26T00:56:40.163Z,0.80
2023-03-26T01:01:08.341Z,1.00
2023-03-26T01:05:53.020Z,0.90
2023-03-26T01:10:22.761Z,1.05
2023-03-26T01:14:50.610Z,1.02
2023-03-26T01:19:24.878Z,7.10
2023-03-26T01:24:00.257Z,8.88
2023-03-26T01:28:29.944Z,9.50
2023-03-26T01:33:07.894Z,1.10
2023-03-26T01:37:43.633Z,2.45
2023-03-26T01:42:16.630Z,1.25
2023-03-26T01:46:44.418Z,1.70
2023-03-26T01:51:11.801Z,1.00
2023-03-26T01:55:50.737Z,0.88
2023-03-26T02:00:24.493Z,1.00
2023-03-26T02:04:54.594Z,0.90
2023-03-26T02:09:26.676Z,0.90
2023-03-26T02:13:53.294Z,0.95
2023-03-26T02:18:24.381Z,0.83
2023-03-26T02:22:49.730Z,1.58
2023-03-26T02:27:18.573Z,0.90
2023-03-26T02:31:44.361Z,0.95
2023-03-26T02:36:14.302Z,0.80
2023-03-26T02:40:41.459Z,1.00
2023-03-26T02:45:09.137Z,1.00
2023-03-26T02:49:52.955Z,1.10
2023-03-26T02:54:37.185Z,0.80
2023-03-26T02:59:22.335Z,0.82
2023-03-26T03:04:01.702Z,1.50
2023-03-26T03:08:34.352Z,1.13
2023-03-26T03:13:17.074Z,1.00
2023-03-26T03:17:42.066Z,0.95
2023-03-26T03:22:07.728Z,1.00
2023-03-26T03:26:34.546Z,1.42
2023-03-26T03:31:18.878Z,1.20
2023-03-26T03:35:46.107Z,1.03
2023-03-26T03:40:12.365Z,1.20
2023-03-26T03:44:37.995Z,1.30
2023-03-26T03:49:12.619Z,1.00
2023-03-26T03:53:40.763Z,1.33
2023-03-26T03:58:09.570Z,1.10
2023-03-26T04:02:35.764Z,0.98
2023-03-26T04:07:05.506Z,1.20
2023-03-26T04:11:58.992Z,1.45
2023-03-26T04:16:44.200Z,1.00
2023-03-26T04:21:09.215Z,1.00
2023-03-26T04:25:36.827Z,1.73
2023-03-26T04:30:12.784Z,1.40
2023-03-26T04:34:37.307Z,1.40
2023-03-26T04:39:13.492Z,0.98
2023-03-26T04:43:57.872Z,1.05
2023-03-26T04:48:34.736Z,1.00
2023-03-26T04:52:59.526Z,0.90
2023-03-26T04:57:47.194Z,0.90
2023-03-26T05:02:34.701Z,1.10
2023-03-26T05:07:01.493Z,0.80
2023-03-26T05:11:38.462Z,1.10
2023-03-26T05:16:04.786Z,1.00
2023-03-26T05:20:41.284Z,1.23
2023-03-26T05:25:10.547Z,1.10
2023-03-26T05:29:37.172Z,1.10
2023-03-26T05:34:03.770Z,1.13
2023-03-26T05:38:31.140Z,0.80
2023-03-26T05:42:58.093Z,0.95
2023-03-26T05:47:36.592Z,1.10
2023-03-26T05:52:02.498Z,1.23
2023-03-26T05:56:57.028Z,0.90
2023-03-26T06:01:43.188Z,1.33
2023-03-26T06:06:16.829Z,1.50
2023-03-26T06:10:52.004Z,1.00
2023-03-26T06:15:18.848Z,1.20
2023-03-26T06:19:58.708Z,0.93
2023-03-26T06:24:35.505Z,1.20
2023-03-26T06:29:21.156Z,1.20
2023-03-26T06:34:08.898Z,1.23
2023-03-26T06:38:35.415Z,1.47
2023-03-26T06:43:07.990Z,1.10
2023-03-26T06:48:10.830Z,1.40
2023-03-26T06:52:58.922Z,1.30
2023-03-26T06:57:55.220Z,1.20
2023-03-26T07:02:47.789Z,1.42
2023-03-26T07:07:32.958Z,1.15
2023-03-26T07:12:24.628Z,0.90
2023-03-26T07:16:49.156Z,1.13
2023-03-26T07:21:38.309Z,2.13
2023-03-26T07:26:32.680Z,1.20
2023-03-26T07:31:28.289Z,0.90
2023-03-26T07:36:25.815Z,1.90
2023-03-26T07:41:19.194Z,2.07
2023-03-26T07:46:36.692Z,2.22
2023-03-26T07:51:36.538Z,1.52
2023-03-26T07:56:21.484Z,1.10
2023-03-26T08:01:17.904Z,1.30
2023-03-26T08:05:56.783Z,1.80
2023-03-26T08:11:03.394Z,1.50
2023-03-26T08:15:44.906Z,1.77
2023-03-26T08:20:21.237Z,1.85
2023-03-26T08:25:02.013Z,1.48
2023-03-26T08:29:34.544Z,1.97
2023-03-26T08:33:59.474Z,1.60
2023-03-26T08:38:28.083Z,1.60
2023-03-26T08:43:21.504Z,2.03
2023-03-26T08:48:29.350Z,1.50
2023-03-26T08:53:40.046Z,1.70
2023-03-26T08:58:52.265Z,1.45
2023-03-26T09:03:48.249Z,1.67
2023-03-26T09:09:05.275Z,3.90
2023-03-26T09:14:06.982Z,2.03
2023-03-26T09:19:12.584Z,2.03
2023-03-26T09:24:10.461Z,1.42
2023-03-26T09:29:17.048Z,1.85
2023-03-26T09:34:14.243Z,1.98
2023-03-26T09:38:49.142Z,2.30
2023-03-26T09:43:54.160Z,2.47
2023-03-26T09:48:36.330Z,2.70
2023-03-26T09:53:14.245Z,2.20
2023-03-26T09:58:01.277Z,1.90
2023-03-26T10:02:58.671Z,1.70
2023-03-26T10:07:57.401Z,2.20
2023-03-26T10:12:37.101Z,2.22
2023-03-26T10:17:11.612Z,2.22
2023-03-26T10:21:44.561Z,2.00
2023-03-26T10:26:40.754Z,1.80
2023-03-26T10:31:36.985Z,2.25
2023-03-26T10:36:34.135Z,2.50
2023-03-26T10:41:12.615Z,2.20
2023-03-26T10:45:55.923Z,3.50
2023-03-26T10:50:56.684Z,2.72
2023-03-26T10:55:30.280Z,11.33
2023-03-26T11:00:00.627Z,75.55
2023-03-26T11:04:40.019Z,24.55
2023-03-26T11:09:22.918Z,7.68
2023-03-26T11:13:56.540Z,2.50
2023-03-26T11:18:31.692Z,3.70
2023-03-26T11:23:10.125Z,2.42
2023-03-26T11:27:57.233Z,2.40
2023-03-26T11:32:26.221Z,2.83
2023-03-26T11:36:59.660Z,4.03
2023-03-26T11:41:27.366Z,2.83
2023-03-26T11:46:13.256Z,15.15
2023-03-26T11:50:49.133Z,35.65
2023-03-26T11:55:15.934Z,8.38
2023-03-26T11:59:56.605Z,15.97
2023-03-26T12:04:37.198Z,3.90
2023-03-26T12:09:05.161Z,7.57
2023-03-26T12:13:35.717Z,20.23
2023-03-26T12:18:25.054Z,12.68
2023-03-26T12:22:54.785Z,37.47
2023-03-26T12:27:29.299Z,3.43
2023-03-26T12:32:04.607Z,12.77
2023-03-26T12:36:37.195Z,22.83
2023-03-26T12:44:44.260Z,29.05
2023-03-26T12:47:54.443Z,15.63
2023-03-26T12:50:59.789Z,57.72
2023-03-26T12:55:42.348Z,73.38
2023-03-26T13:00:40.846Z,47.53
2023-03-26T13:05:35.993Z,80.20
2023-03-26T13:10:35.069Z,81.45
2023-03-26T13:15:22.053Z,35.23
2023-03-26T13:19:57.715Z,98.03
2023-03-26T13:24:42.458Z,67.65
2023-03-26T13:29:09.489Z,41.15
2023-03-26T13:33:50.714Z,17.83
2023-03-26T13:38:26.219Z,16.42
2023-03-26T13:42:56.961Z,12.73
2023-03-26T13:47:22.342Z,9.50
2023-03-26T13:51:55.365Z,15.30
2023-03-26T13:56:25.068Z,5.90
2023-03-26T14:00:57.407Z,2.43
2023-03-26T14:05:22.529Z,3.20
2023-03-26T14:09:51.661Z,3.30
2023-03-26T14:14:20.131Z,2.75
2023-03-26T14:18:49.899Z,2.63
2023-03-26T14:23:36.949Z,2.55
2023-03-26T14:28:20.093Z,2.17
2023-03-26T14:33:06.169Z,1.83
2023-03-26T14:37:55.629Z,1.98
2023-03-26T14:42:26.535Z,1.80
2023-03-26T14:47:17.515Z,2.10
2023-03-26T14:52:12.490Z,2.15
2023-03-26T14:57:01.192Z,2.42
2023-03-26T15:01:28.920Z,2.03
2023-03-26T15:06:24.081Z,2.03
2023-03-26T15:11:02.905Z,2.00
2023-03-26T15:16:00.363Z,12.38
2023-03-26T15:20:50.594Z,18.70
2023-03-26T15:25:35.893Z,22.25
2023-03-26T15:30:40.525Z,15.20
2023-03-26T15:35:44.530Z,1.90
2023-03-26T15:40:29.353Z,2.10
2023-03-26T15:45:08.311Z,2.17
2023-03-26T15:49:43.061Z,1.95
2023-03-26T15:54:10.217Z,1.97
2023-03-26T15:58:40.106Z,3.75
2023-03-26T16:03:22.978Z,2.60
2023-03-26T16:08:03.548Z,10.50
2023-03-26T16:12:39.637Z,5.22
2023-03-26T16:17:03.960Z,5.32
2023-03-26T16:21:57.614Z,9.17
2023-03-26T16:26:32.018Z,21.20
2023-03-26T16:31:38.869Z,17.38
2023-03-26T16:36:19.498Z,30.17
2023-03-26T16:41:03.264Z,9.80
2023-03-26T16:45:30.810Z,8.63
2023-03-26T16:50:08.116Z,14.60
2023-03-26T16:54:46.611Z,11.63
2023-03-26T16:59:18.398Z,75.35
2023-03-26T17:03:46.178Z,89.05
2023-03-26T17:08:14.331Z,101.70
2023-03-26T17:12:46.072Z,156.18
2023-03-26T17:17:25.923Z,165.63
2023-03-26T17:22:07.903Z,172.75
2023-03-26T17:26:35.214Z,211.00
2023-03-26T17:31:09.365Z,158.40
2023-03-26T17:35:43.999Z,158.10
2023-03-26T17:40:52.029Z,236.47
2023-03-26T17:45:18.592Z,243.73
2023-03-26T17:49:49.685Z,24.58
2023-03-26T17:54:26.477Z,10.90
2023-03-26T17:58:50.295Z,4.28
2023-03-26T18:03:19.518Z,6.15
2023-03-26T18:08:28.429Z,59.17
2023-03-26T18:13:07.468Z,45.87
2023-03-26T18:17:28.895Z,56.72
2023-03-26T18:21:52.139Z,55.83
2023-03-26T18:26:18.457Z,34.63
2023-03-26T18:30:49.115Z,34.72
2023-03-26T18:35:21.087Z,31.83
2023-03-26T18:39:40.399Z,50.60
2023-03-26T18:44:07.972Z,38.75
2023-03-26T18:48:31.087Z,40.63
2023-03-26T18:52:52.043Z,36.55
2023-03-26T18:57:15.389Z,43.00
2023-03-26T19:01:38.781Z,24.77
2023-03-26T19:06:04.725Z,7.38
2023-03-26T19:10:28.507Z,28.30
2023-03-26T19:14:58.091Z,18.38
2023-03-26T19:19:23.648Z,28.27
2023-03-26T19:23:45.650Z,51.63
2023-03-26T19:28:14.308Z,25.25
2023-03-26T19:32:34.963Z,49.80
2023-03-26T19:36:59.539Z,26.77
2023-03-26T19:41:23.381Z,29.83
2023-03-26T19:45:59.962Z,22.13
2023-03-26T19:50:26.950Z,30.80
2023-03-26T19:54:59.908Z,11.03
2023-03-26T19:59:22.600Z,8.60
2023-03-26T20:03:44.496Z,19.15
2023-03-26T20:08:17.456Z,4.43
2023-03-26T20:12:39.046Z,7.97
2023-03-26T20:16:56.805Z,8.88
2023-03-26T20:21:15.225Z,4.03
2023-03-26T20:25:35.878Z,4.20
2023-03-26T20:29:57.784Z,5.63
2023-03-26T20:34:18.672Z,6.57
2023-03-26T20:38:39.419Z,6.57
2023-03-26T20:42:57.214Z,6.82
2023-03-26T20:47:16.472Z,5.65
2023-03-26T20:51:38.110Z,4.80
2023-03-26T20:55:57.555Z,4.88
2023-03-26T21:00:19.303Z,4.93
2023-03-26T21:04:37.949Z,5.10
2023-03-26T21:09:17.623Z,4.73
2023-03-26T21:14:09.392Z,5.53
2023-03-26T21:18:30.159Z,5.07
2023-03-26T21:27:33.790Z,7.88
2023-03-26T21:31:53.995Z,7.50
2023-03-26T21:36:13.403Z,5.53
2023-03-26T21:40:35.472Z,6.72
2023-03-26T21:44:54.672Z,4.55
2023-03-26T21:49:13.488Z,5.28
2023-03-26T21:53:35.822Z,7.47
2023-03-26T21:58:23.115Z,5.50
2023-03-26T22:02:57.306Z,4.53
2023-03-26T22:07:20.904Z,3.57
2023-03-26T22:11:37.903Z,4.30
2023-03-26T22:15:57.662Z,4.50
2023-03-26T22:20:20.152Z,3.93
2023-03-26T22:24:40.654Z,3.40
2023-03-26T22:29:02.278Z,3.20
2023-03-26T22:33:22.606Z,3.20
2023-03-26T22:37:42.080Z,2.53
2023-03-26T22:42:02.152Z,3.00
2023-03-26T22:46:21.217Z,3.92
2023-03-26T22:50:41.149Z,2.93
2023-03-26T22:55:00.041Z,3.30
2023-03-26T22:59:18.735Z,3.15
2023-03-26T23:03:36.926Z,2.80
2023-03-26T23:07:56.005Z,2.97
2023-03-26T23:12:15.656Z,2.90
2023-03-26T23:16:33.330Z,3.17
2023-03-26T23:20:52.897Z,3.50
2023-03-26T23:25:14.216Z,2.72
2023-03-26T23:29:34.385Z,2.85
2023-03-26T23:33:51.779Z,3.20
2023-03-26T23:38:13.005Z,3.03
2023-03-26T23:42:34.562Z,2.85
2023-03-26T23:46:57.897Z,2.73
2023-03-26T23:51:18.340Z,2.97
2023-03-26T23:55:38.018Z,2.80
2023-03-26T23:59:57.293Z,2.60
